sensor_id;sensor_type;location;lat;lon;timestamp;P1;P2;P0
77354;PMS7003;66422;51.202;19.936;2023-05-29T00:13:36;19.00;12.00;11.00
77354;PMS7003;66422;51.202;19.936;2023-05-29T00:28:56;11.00;8.00;6.00
77354;PMS7003;66422;51.202;19.936;2023-05-29T00:44:17;12.00;10.00;7.00
77354;PMS7003;66422;51.202;19.936;2023-05-29T00:59:37;16.00;10.00;7.00
77354;PMS7003;66422;51.202;19.936;2023-05-29T01:15:04;12.33;9.00;7.67
77354;PMS7003;66422;51.202;19.936;2023-05-29T01:30:49;10.50;10.00;7.00
77354;PMS7003;66422;51.202;19.936;2023-05-29T01:46:11;15.00;9.00;7.00
77354;PMS7003;66422;51.202;19.936;2023-05-29T02:01:34;19.00;11.00;10.00
77354;PMS7003;66422;51.202;19.936;2023-05-29T02:16:53;13.50;9.50;8.00
77354;PMS7003;66422;51.202;19.936;2023-05-29T02:32:13;9.00;6.00;6.00
77354;PMS7003;66422;51.202;19.936;2023-05-29T02:47:33;11.33;9.67;7.33
77354;PMS7003;66422;51.202;19.936;2023-05-29T03:02:53;7.50;6.00;5.00
77354;PMS7003;66422;51.202;19.936;2023-05-29T03:18:13;11.00;8.00;5.33
77354;PMS7003;66422;51.202;19.936;2023-05-29T03:33:33;15.50;10.50;9.00
77354;PMS7003;66422;51.202;19.936;2023-05-29T03:49:30;16.00;12.00;10.50
77354;PMS7003;66422;51.202;19.936;2023-05-29T04:04:50;11.00;9.50;8.00
77354;PMS7003;66422;51.202;19.936;2023-05-29T04:20:10;20.00;17.00;14.00
77354;PMS7003;66422;51.202;19.936;2023-05-29T04:35:30;19.00;18.00;14.00
77354;PMS7003;66422;51.202;19.936;2023-05-29T04:50:51;22.67;19.67;15.00
77354;PMS7003;66422;51.202;19.936;2023-05-29T05:06:11;19.00;18.00;15.00
77354;PMS7003;66422;51.202;19.936;2023-05-29T05:21:32;20.67;18.00;15.33
77354;PMS7003;66422;51.202;19.936;2023-05-29T05:36:53;16.00;15.00;12.00
77354;PMS7003;66422;51.202;19.936;2023-05-29T05:52:12;16.67;15.67;10.67
77354;PMS7003;66422;51.202;19.936;2023-05-29T06:07:32;13.00;12.50;11.50
77354;PMS7003;66422;51.202;19.936;2023-05-29T06:22:53;14.00;10.00;8.00
77354;PMS7003;66422;51.202;19.936;2023-05-29T06:38:13;11.50;8.00;6.50
77354;PMS7003;66422;51.202;19.936;2023-05-29T06:53:34;5.00;4.00;3.00
77354;PMS7003;66422;51.202;19.936;2023-05-29T07:08:55;5.00;3.00;2.00
77354;PMS7003;66422;51.202;19.936;2023-05-29T07:24:16;5.00;2.00;2.00
77354;PMS7003;66422;51.202;19.936;2023-05-29T07:39:35;4.00;3.00;3.00
77354;PMS7003;66422;51.202;19.936;2023-05-29T07:55:03;3.00;2.00;1.50
77354;PMS7003;66422;51.202;19.936;2023-05-29T08:10:24;2.00;2.00;2.00
77354;PMS7003;66422;51.202;19.936;2023-05-29T08:25:43;3.00;2.00;1.00
77354;PMS7003;66422;51.202;19.936;2023-05-29T08:41:04;3.00;2.00;2.00
77354;PMS7003;66422;51.202;19.936;2023-05-29T08:56:25;2.50;2.50;2.50
77354;PMS7003;66422;51.202;19.936;2023-05-29T09:11:45;3.00;3.00;2.00
77354;PMS7003;66422;51.202;19.936;2023-05-29T09:27:05;3.00;3.00;2.67
77354;PMS7003;66422;51.202;19.936;2023-05-29T09:42:27;2.67;2.67;2.33
77354;PMS7003;66422;51.202;19.936;2023-05-29T09:57:47;2.00;2.00;2.00
77354;PMS7003;66422;51.202;19.936;2023-05-29T10:13:10;4.00;3.00;2.00
77354;PMS7003;66422;51.202;19.936;2023-05-29T10:28:31;3.00;2.00;2.00
77354;PMS7003;66422;51.202;19.936;2023-05-29T10:43:56;2.67;2.67;2.67
77354;PMS7003;66422;51.202;19.936;2023-05-29T10:59:19;4.00;3.00;3.00
77354;PMS7003;66422;51.202;19.936;2023-05-29T11:14:53;2.50;2.50;2.00
77354;PMS7003;66422;51.202;19.936;2023-05-29T11:30:14;4.00;4.00;3.00
77354;PMS7003;66422;51.202;19.936;2023-05-29T11:45:34;3.00;3.00;3.00
77354;PMS7003;66422;51.202;19.936;2023-05-29T12:00:54;2.50;2.00;2.00
77354;PMS7003;66422;51.202;19.936;2023-05-29T12:16:14;7.00;4.00;3.00
77354;PMS7003;66422;51.202;19.936;2023-05-29T12:31:33;2.00;2.00;2.00
77354;PMS7003;66422;51.202;19.936;2023-05-29T12:46:55;6.00;4.00;4.00
77354;PMS7003;66422;51.202;19.936;2023-05-29T13:02:16;5.00;5.00;4.00
77354;PMS7003;66422;51.202;19.936;2023-05-29T13:17:35;4.50;4.50;4.00
77354;PMS7003;66422;51.202;19.936;2023-05-29T13:32:55;5.00;5.00;5.00
77354;PMS7003;66422;51.202;19.936;2023-05-29T13:48:14;4.00;4.00;3.67
77354;PMS7003;66422;51.202;19.936;2023-05-29T14:03:34;5.00;5.00;4.00
77354;PMS7003;66422;51.202;19.936;2023-05-29T14:18:54;5.50;4.00;3.50
77354;PMS7003;66422;51.202;19.936;2023-05-29T14:34:14;7.00;3.33;3.00
77354;PMS7003;66422;51.202;19.936;2023-05-29T14:49:34;6.00;4.00;3.00
77354;PMS7003;66422;51.202;19.936;2023-05-29T15:04:53;3.50;3.00;2.75
77354;PMS7003;66422;51.202;19.936;2023-05-29T15:20:15;6.50;4.50;4.00
77354;PMS7003;66422;51.202;19.936;2023-05-29T15:35:37;1.00;1.00;1.00
77354;PMS7003;66422;51.202;19.936;2023-05-29T15:50:57;7.00;4.00;4.00
77354;PMS7003;66422;51.202;19.936;2023-05-29T16:06:16;14.67;8.00;6.33
77354;PMS7003;66422;51.202;19.936;2023-05-29T16:21:37;8.00;5.00;4.00
77354;PMS7003;66422;51.202;19.936;2023-05-29T16:36:56;7.25;5.75;4.50
77354;PMS7003;66422;51.202;19.936;2023-05-29T16:52:16;4.00;4.00;4.00
77354;PMS7003;66422;51.202;19.936;2023-05-29T17:07:38;5.33;5.33;4.33
77354;PMS7003;66422;51.202;19.936;2023-05-29T17:22:58;7.00;6.00;5.00
77354;PMS7003;66422;51.202;19.936;2023-05-29T17:38:18;8.67;5.33;4.00
77354;PMS7003;66422;51.202;19.936;2023-05-29T17:53:37;9.00;7.00;6.00
77354;PMS7003;66422;51.202;19.936;2023-05-29T18:08:57;9.00;7.50;6.50
77354;PMS7003;66422;51.202;19.936;2023-05-29T18:24:17;6.33;6.33;6.00
77354;PMS7003;66422;51.202;19.936;2023-05-29T18:39:36;8.00;8.00;6.00
77354;PMS7003;66422;51.202;19.936;2023-05-29T18:54:56;12.00;8.00;6.50
77354;PMS7003;66422;51.202;19.936;2023-05-29T19:10:16;11.00;9.00;7.50
77354;PMS7003;66422;51.202;19.936;2023-05-29T19:25:36;10.50;10.00;8.00
77354;PMS7003;66422;51.202;19.936;2023-05-29T19:40:57;11.00;11.00;8.00
77354;PMS7003;66422;51.202;19.936;2023-05-29T19:56:17;11.00;10.00;8.00
77354;PMS7003;66422;51.202;19.936;2023-05-29T20:11:36;12.00;11.50;8.50
77354;PMS7003;66422;51.202;19.936;2023-05-29T20:26:56;15.00;15.00;13.00
77354;PMS7003;66422;51.202;19.936;2023-05-29T20:42:15;22.00;21.00;17.00
77354;PMS7003;66422;51.202;19.936;2023-05-29T20:57:35;22.50;21.50;17.00
77354;PMS7003;66422;51.202;19.936;2023-05-29T21:12:55;28.00;21.00;19.00
77354;PMS7003;66422;51.202;19.936;2023-05-29T21:28:16;26.67;20.67;19.00
77354;PMS7003;66422;51.202;19.936;2023-05-29T21:43:35;26.00;22.00;18.00
77354;PMS7003;66422;51.202;19.936;2023-05-29T21:58:55;31.00;27.50;19.50
77354;PMS7003;66422;51.202;19.936;2023-05-29T22:14:15;32.00;26.00;21.00
77354;PMS7003;66422;51.202;19.936;2023-05-29T22:29:35;28.00;23.00;20.00
77354;PMS7003;66422;51.202;19.936;2023-05-29T22:44:55;27.50;24.00;19.50
77354;PMS7003;66422;51.202;19.936;2023-05-29T23:00:15;26.67;22.67;18.33
77354;PMS7003;66422;51.202;19.936;2023-05-29T23:15:36;29.67;24.67;21.33
77354;PMS7003;66422;51.202;19.936;2023-05-29T23:30:55;32.00;25.00;20.00
77354;PMS7003;66422;51.202;19.936;2023-05-29T23:46:15;24.00;20.00;17.00
